LiveATC.Net - Listen to live air traffic control over the Internet! Contact LiveATC.net for advertising information

Find LiveATC Audio Streams


Airport/ARTCC Code

Frequency
(e.g., 124.400, 128.75)
Site-wide search

Browse LiveATC Feeds
LiveATC Coverage Map
Top 50 LiveATC Feeds
Bad Weather Areas

LiveATC FAQ
Offer a LiveATC Feed
Contact LiveATC.net
Press Inquiries

LiveATC on iPhone
LiveATC on Android

LiveATC Mobile
(Mobile browser)

ATC Audio Archives
Interesting Recordings

LiveATC Forums

Home Page
About LiveATC.net
Make a Donation
LiveATC Bookstore

Terms of Use
Privacy Policy

ATC/Radar Sites
U.S. ARTCC Freqs
Canadian Air Freqs

AIRMETs/SIGMETs

FAA Airport Status
Nat'l Airspace Status
Arrival Demand Charts


Server Software By:
Icecast.org
Liquidsoap


Current Potentially Bad Weather Airports
(updated every 30 minutes - sorted alphabetically by ICAO code)



This page lists LiveATC.net airport areas that may be interesting to listen to because of challenging flying (weather) conditions. Challenging weather conditions include low ceilings, limited visibility, high or gusty winds, or thunderstorms. This is an evolving new feature and comments are welcome.

Updated: Thu Jan 29 08:10:02 UTC 2015
Click on airport name to go to that airport area's feeds.

BIKF Twr/App/Radar
WX MAP UNAVAILABLEBIKF 290730Z 03027G38KT 9999 FEW023 SCT140 01/M02 Q0994 R02/790047
BIRK Gnd/Twr/App/Misc
WX MAP UNAVAILABLEBIRK 290700Z 03022G33KT 9999 FEW018 SCT035 01/M03 Q0992 R01/490194
CYTS CTAF/FSS/Area
WX MAP UNAVAILABLECYTS 290735Z 18009KT 2SM -SN OVC011 M08/M10 A2992 RMK SC8 SLP154
CYXE Gnd/Twr/App/Center
WX MAP UNAVAILABLECYXE 290700Z 36009KT 15SM -SN OVC015 M10/M13 A3045 RMK SC8 SLP348
CYYT Gnd/Twr/Gander Center
WX MAP UNAVAILABLECYYT 290754Z 24015KT 2SM -DZ BR OVC004 05/05 A2979 RMK SF8 SLP090
EFKU Tower/Approach
WX MAP UNAVAILABLEEFKU 290750Z 14010KT 8000 -SN BKN009 OVC016 00/M01 Q0987
EHRD Twr/App
WX MAP UNAVAILABLEEHRD 290755Z AUTO 25013KT 220V280 9999 FEW031 04/M01 Q0988 TEMPO 26022G35KT 5000 SHRAGS SCT025CB
EIKN Gnd/Twr/App
WX MAP UNAVAILABLEEIKN 290730Z 29025G38KT 9999 -SHSN SCT020CB SCT040 00/M00 Q0984 R27//99// NOSIG
ENTC Tower/App
WX MAP UNAVAILABLEENTC 290750Z 07019KT 9999 FEW034 SCT049 M04/M12 Q0992 TEMPO 04020G35KT RMK WIND 2600FT 09028G39KT
EPLL Tower
WX MAP UNAVAILABLEEPLL 290730Z 23011KT 4800 -SN BR BKN010 OVC016 00/M01 Q0995
EPWA Tower
WX MAP UNAVAILABLEEPWA 290730Z 21009KT 9999 -SN BKN017 BKN027 01/M01 Q0994 NOSIG
EVRA Tower/Guard
WX MAP UNAVAILABLEEVRA 290750Z 17021G31KT 9999 OVC018 00/M02 Q0988 R18/190095 TEMPO 3000 -SNRA BKN010 OVC015
KALO Gnd/Twr/App
kaloKALO 290754Z AUTO 33011KT 4SM BR OVC005 00/00 A2980 RMK AO2 UPB30E43 SLP101 P0000 T00000000
KBNW CTAF
kbnwKBNW 290735Z AUTO 33023G33KT 9SM OVC014 02/00 A2986 RMK AO2
KDLH Gnd/Twr/App
kdlhKDLH 290755Z 32011KT 2 1/2SM -FZDZ BR OVC004 M02/M03 A2981 RMK AO2 FZDZE06B27 SLP115 P0000 I1000 T10171028
KEAU Tower
keauKEAU 290756Z AUTO 33006KT 3SM BR OVC006 M02/M04 A2984 RMK AO2 SLP115 T10221039
KFCM Tower
kfcmKFCM 290753Z AUTO 31010KT 4SM BR OVC008 00/M02 A2989 RMK AO2 SLP133 T00001017
KGEG Tower
kgegKGEG 290753Z 04007KT 1/8SM R03/0800FT FG OVC001 01/01 A3043 RMK AO2 SLP324 T00060006 400281006
KHIO Ground/Tower
WX MAP UNAVAILABLEKHIO 290753Z AUTO 00000KT 6SM BR OVC003 08/08 A3032 RMK AO2 SLP268 T00780078 401330067
KHOU Gnd/Twr/App
khouKHOU 290753Z 18003KT 3/4SM BR VV002 11/11 A3018 RMK AO2 TWR VIS 7 SLP223 VIS E-S 1/2 T01060106
KLNK Tower
klnkKLNK 290754Z AUTO 34022G32KT 10SM OVC018 03/M01 A3011 RMK AO2 PK WND 33041/0707 SLP200 T00331011
KMFE Gnd/Twr/App
kmfeKMFE 290753Z AUTO 14007KT 2 1/2SM BR CLR 14/14 A3013 RMK AO2 SLP201 T01440139
KMSP Minneapolis App
kmspKMSP 290753Z 30009KT 4SM BR OVC008 M01/M02 A2990 RMK AO2 SLP134 T10061022
KOMA Del/Gnd/Twr
komaKOMA 290752Z 33023G41KT 10SM OVC022 03/M02 A3002 RMK AO2 PK WND 34041/0710 SLP171 T00331017
KPDT Tower
kpdtKPDT 290753Z AUTO 02006KT 3SM BR OVC003 02/01 A3043 RMK AO2 CIG 002V006 SLP306 T00170011 401110011
KPLU/S50 CTAF/KTIW Twr
kpluKPLU 290735Z AUTO 00000KT 5SM -DZ OVC002 04/04 A3036 RMK AO2
KRDK CTAF
krdkKRDK 290735Z AUTO 32021G34KT 10SM OVC010 03/01 A3000 RMK AO2
KRNH CTAF/Clearance
krnhKRNH 290735Z AUTO 32007KT 2 1/2SM BR OVC005 M01/M01 A2987 RMK AO2 T10131013
KRST Gnd/Twr/App
krstKRST 290754Z 34020KT 3SM BR OVC005 M01/M02 A2984 RMK AO2 FZRAE29 SLP119 P0000 I1001 T10111022
KSAW Gnd/Twr/ZMP
WX MAP UNAVAILABLEKSAW 290756Z AUTO 18006KT 2 1/2SM -SN SCT013 OVC020 M03/M05 A2978 RMK AO2 T10301055
KSPB CTAF
kspbKSPB 290753Z AUTO 00000KT 8SM OVC003 07/06 A3032 RMK AO2 SLP268 T00670061 401500061
KSUX Twr/App/ZMP
ksuxKSUX 290752Z AUTO 33023G30KT 10SM OVC019 02/M01 A3008 RMK AO2 PK WND 33035/0721 SNB32E41 SLP192 P0000 T00171011
LHBP Approach
WX MAP UNAVAILABLELHBP 290800Z 15007KT 1500 R13L/1500U BR BKN002 OVC005 M02/M02 Q1004 NOSIG
LKTB Gnd/Twr/Radar
WX MAP UNAVAILABLELKTB 290730Z 18002KT 8000 OVC004 M00/M01 Q0999 R28/99//95 NOSIG
LRTR Tower
WX MAP UNAVAILABLELRTR 290730Z 16007KT 8000 OVC009 00/M00 Q1006
LSGS Gnd/Twr/App
WX MAP UNAVAILABLELSGS 290750Z 00000KT 0400 SN OVC002 M01/M01 Q1002 R/SNOCLO
LSZG Tower
WX MAP UNAVAILABLELSZG 290750Z VRB01KT 6000 -RA OVC008 01/01 Q1002 NOSIG
LSZR Tower
WX MAP UNAVAILABLELSZR 290750Z VRB03KT 9999 -SN FEW020 BKN050 01/00 Q1002 R88///99// NOSIG RMK D
LUKK Gnd/Twr/App/ACC
WX MAP UNAVAILABLELUKK 290800Z VRB01KT 0100 R08/0450U FZFG VV000 M02/M03 Q1009 R08/190058 TEMPO 0600 VV001
LZKZ Gnd/Twr/App
WX MAP UNAVAILABLELZKZ 290800Z 19010KT 4000 BR OVC004 M01/M02 Q1003 NOSIG
PAFA Gnd/Twr/App
pafaPAFA 290753Z 00000KT 7SM -SN FEW004 M37/ A3038 RMK AO2 SNB48 SLP312 -SN IS IC T1372
SBMG Twr/App
WX MAP UNAVAILABLESBMG 290715Z 35013KT 9999 BKN002 OVC007 21/21 Q1013
URSS Gnd/Twr/App
WX MAP UNAVAILABLEURSS 290730Z 14004G08MPS 9999 -SHRA BKN033CB OVC100 10/06 Q1012 TEMPO -TSRA RMK R02/14004MPS MT OBSC QFE758 06290055 02//////
UUEE Twr/App/Radar
WX MAP UNAVAILABLEUUEE 290730Z 17005MPS 4900 -SN OVC010 M03/M04 Q1006 75510245 25510245 NOSIG
Lumpur Control/Radar (North)
WX MAP UNAVAILABLEWMKK 290730Z 30009KT 250V330 8000 VCSH FEW017CB SCT018 BKN140 28/23 Q1009 TEMPO 7000 -TSRA